sensor_id;sensor_type;location;lat;lon;timestamp;pressure;altitude;pressure_sealevel;temperature;humidity
78073;BME280;67281;48.770;11.440;2023-01-31T00:01:29;97774.13;;;11.15;44.33
78073;BME280;67281;48.770;11.440;2023-01-31T00:03:58;97790.22;;;11.23;44.36
78073;BME280;67281;48.770;11.440;2023-01-31T00:06:26;97781.13;;;11.02;45.25
78073;BME280;67281;48.770;11.440;2023-01-31T00:08:54;97781.03;;;11.03;45.27
78073;BME280;67281;48.770;11.440;2023-01-31T00:11:22;97785.47;;;11.15;44.55
78073;BME280;67281;48.770;11.440;2023-01-31T00:13:50;97794.03;;;11.05;44.85
78073;BME280;67281;48.770;11.440;2023-01-31T00:16:18;97795.75;;;11.18;44.40
78073;BME280;67281;48.770;11.440;2023-01-31T00:18:45;97786.94;;;11.19;44.98
78073;BME280;67281;48.770;11.440;2023-01-31T00:21:18;97796.03;;;11.28;44.45
78073;BME280;67281;48.770;11.440;2023-01-31T00:23:45;97792.44;;;11.29;44.12
78073;BME280;67281;48.770;11.440;2023-01-31T00:26:32;97783.84;;;11.27;44.19
78073;BME280;67281;48.770;11.440;2023-01-31T00:29:02;97793.50;;;11.27;44.37
78073;BME280;67281;48.770;11.440;2023-01-31T00:31:31;97800.81;;;11.22;44.28
78073;BME280;67281;48.770;11.440;2023-01-31T00:33:58;97795.28;;;11.26;44.48
78073;BME280;67281;48.770;11.440;2023-01-31T00:36:27;97792.19;;;11.19;44.83
78073;BME280;67281;48.770;11.440;2023-01-31T00:38:56;97793.56;;;11.12;45.01
78073;BME280;67281;48.770;11.440;2023-01-31T00:41:26;97788.63;;;11.20;44.75
78073;BME280;67281;48.770;11.440;2023-01-31T00:43:53;97803.44;;;11.22;44.72
78073;BME280;67281;48.770;11.440;2023-01-31T00:46:20;97805.66;;;11.28;44.43
78073;BME280;67281;48.770;11.440;2023-01-31T00:48:47;97805.88;;;11.25;44.54
78073;BME280;67281;48.770;11.440;2023-01-31T00:51:14;97811.00;;;11.26;44.36
78073;BME280;67281;48.770;11.440;2023-01-31T00:53:41;97811.28;;;11.36;44.54
78073;BME280;67281;48.770;11.440;2023-01-31T00:56:17;97815.03;;;11.32;44.44
78073;BME280;67281;48.770;11.440;2023-01-31T00:58:44;97808.28;;;11.28;44.32
78073;BME280;67281;48.770;11.440;2023-01-31T01:01:19;97808.84;;;11.33;44.53
78073;BME280;67281;48.770;11.440;2023-01-31T01:03:47;97821.78;;;11.22;44.52
78073;BME280;67281;48.770;11.440;2023-01-31T01:06:15;97819.63;;;11.28;44.50
78073;BME280;67281;48.770;11.440;2023-01-31T01:08:42;97827.44;;;11.15;44.47
78073;BME280;67281;48.770;11.440;2023-01-31T01:11:12;97824.13;;;11.26;44.73
78073;BME280;67281;48.770;11.440;2023-01-31T01:13:39;97823.09;;;11.29;44.47
78073;BME280;67281;48.770;11.440;2023-01-31T01:16:12;97809.44;;;11.24;44.60
78073;BME280;67281;48.770;11.440;2023-01-31T01:18:41;97795.84;;;11.17;44.67
78073;BME280;67281;48.770;11.440;2023-01-31T01:21:12;97792.00;;;11.23;44.46
78073;BME280;67281;48.770;11.440;2023-01-31T01:23:40;97805.88;;;11.25;44.55
78073;BME280;67281;48.770;11.440;2023-01-31T01:26:15;97807.91;;;11.34;44.62
78073;BME280;67281;48.770;11.440;2023-01-31T01:28:43;97813.88;;;11.36;44.46
78073;BME280;67281;48.770;11.440;2023-01-31T01:31:13;97820.72;;;11.38;44.35
78073;BME280;67281;48.770;11.440;2023-01-31T01:33:44;97839.84;;;11.40;44.46
78073;BME280;67281;48.770;11.440;2023-01-31T01:36:14;97843.09;;;11.44;44.46
78073;BME280;67281;48.770;11.440;2023-01-31T01:38:44;97841.22;;;11.46;44.02
78073;BME280;67281;48.770;11.440;2023-01-31T01:41:12;97843.75;;;11.47;43.72
78073;BME280;67281;48.770;11.440;2023-01-31T01:43:53;97838.78;;;11.43;43.83
78073;BME280;67281;48.770;11.440;2023-01-31T01:49:10;97841.41;;;11.43;44.42
78073;BME280;67281;48.770;11.440;2023-01-31T01:51:39;97853.59;;;11.44;44.03
78073;BME280;67281;48.770;11.440;2023-01-31T01:54:15;97835.34;;;11.42;43.85
78073;BME280;67281;48.770;11.440;2023-01-31T01:56:48;97840.38;;;11.45;44.17
78073;BME280;67281;48.770;11.440;2023-01-31T01:59:22;97839.53;;;11.45;44.14
78073;BME280;67281;48.770;11.440;2023-01-31T02:01:50;97852.56;;;11.46;44.36
78073;BME280;67281;48.770;11.440;2023-01-31T02:04:22;97847.06;;;11.37;44.59
78073;BME280;67281;48.770;11.440;2023-01-31T02:06:50;97847.09;;;11.23;44.79
78073;BME280;67281;48.770;11.440;2023-01-31T02:12:20;97853.28;;;11.22;44.47
78073;BME280;67281;48.770;11.440;2023-01-31T02:14:47;97853.56;;;11.17;44.76
78073;BME280;67281;48.770;11.440;2023-01-31T02:17:17;97850.44;;;11.25;44.55
78073;BME280;67281;48.770;11.440;2023-01-31T02:20:09;97848.56;;;11.27;44.88
78073;BME280;67281;48.770;11.440;2023-01-31T02:23:05;97853.72;;;11.28;44.74
78073;BME280;67281;48.770;11.440;2023-01-31T02:38:54;97852.84;;;11.42;44.55
78073;BME280;67281;48.770;11.440;2023-01-31T02:50:12;97878.59;;;11.49;44.54
78073;BME280;67281;48.770;11.440;2023-01-31T02:55:31;97876.09;;;11.48;43.78
78073;BME280;67281;48.770;11.440;2023-01-31T02:58:19;97884.69;;;11.50;43.76
78073;BME280;67281;48.770;11.440;2023-01-31T03:00:48;97879.44;;;11.50;44.02
78073;BME280;67281;48.770;11.440;2023-01-31T03:03:24;97886.28;;;11.52;43.88
78073;BME280;67281;48.770;11.440;2023-01-31T03:09:15;97894.19;;;11.38;44.74
78073;BME280;67281;48.770;11.440;2023-01-31T03:15:18;97900.84;;;11.44;44.07
78073;BME280;67281;48.770;11.440;2023-01-31T03:18:00;97902.63;;;11.43;44.31
78073;BME280;67281;48.770;11.440;2023-01-31T03:20:42;97909.09;;;11.38;44.34
78073;BME280;67281;48.770;11.440;2023-01-31T03:23:13;97904.59;;;11.40;44.65
78073;BME280;67281;48.770;11.440;2023-01-31T03:25:42;97913.59;;;11.36;44.36
78073;BME280;67281;48.770;11.440;2023-01-31T03:28:19;97922.94;;;11.40;44.10
78073;BME280;67281;48.770;11.440;2023-01-31T03:33:48;97923.69;;;11.42;44.59
78073;BME280;67281;48.770;11.440;2023-01-31T03:36:39;97925.13;;;11.33;44.23
78073;BME280;67281;48.770;11.440;2023-01-31T03:41:48;97923.38;;;11.05;44.91
78073;BME280;67281;48.770;11.440;2023-01-31T03:46:57;97929.88;;;11.41;44.51
78073;BME280;67281;48.770;11.440;2023-01-31T03:49:26;97924.78;;;11.11;45.01
78073;BME280;67281;48.770;11.440;2023-01-31T03:52:00;97939.63;;;11.25;44.39
78073;BME280;67281;48.770;11.440;2023-01-31T03:54:35;97946.19;;;11.17;44.65
78073;BME280;67281;48.770;11.440;2023-01-31T03:57:22;97952.00;;;11.37;44.42
78073;BME280;67281;48.770;11.440;2023-01-31T03:59:52;97953.50;;;11.41;44.39
78073;BME280;67281;48.770;11.440;2023-01-31T04:02:24;97960.44;;;11.42;44.56
78073;BME280;67281;48.770;11.440;2023-01-31T04:05:06;97956.03;;;11.42;43.96
78073;BME280;67281;48.770;11.440;2023-01-31T04:07:35;97956.50;;;11.20;44.62
78073;BME280;67281;48.770;11.440;2023-01-31T04:10:03;97963.44;;;11.36;44.33
78073;BME280;67281;48.770;11.440;2023-01-31T04:12:35;97964.28;;;11.36;44.02
78073;BME280;67281;48.770;11.440;2023-01-31T04:15:04;97962.13;;;11.29;44.50
78073;BME280;67281;48.770;11.440;2023-01-31T04:17:31;97976.56;;;11.22;44.41
78073;BME280;67281;48.770;11.440;2023-01-31T04:19:59;97974.13;;;11.18;45.06
78073;BME280;67281;48.770;11.440;2023-01-31T04:22:25;97982.53;;;11.24;44.99
78073;BME280;67281;48.770;11.440;2023-01-31T04:24:52;97979.66;;;11.28;44.98
78073;BME280;67281;48.770;11.440;2023-01-31T04:27:18;97968.69;;;11.22;44.41
78073;BME280;67281;48.770;11.440;2023-01-31T04:29:45;97978.63;;;11.02;44.80
78073;BME280;67281;48.770;11.440;2023-01-31T04:32:12;97981.34;;;11.01;44.63
78073;BME280;67281;48.770;11.440;2023-01-31T04:34:38;97994.66;;;11.12;45.00
78073;BME280;67281;48.770;11.440;2023-01-31T04:37:05;97992.47;;;10.90;45.28
78073;BME280;67281;48.770;11.440;2023-01-31T04:39:31;97996.75;;;10.77;45.65
78073;BME280;67281;48.770;11.440;2023-01-31T04:41:58;98001.91;;;10.78;45.71
78073;BME280;67281;48.770;11.440;2023-01-31T04:44:25;97997.38;;;11.10;44.92
78073;BME280;67281;48.770;11.440;2023-01-31T04:46:51;97987.41;;;11.15;45.03
78073;BME280;67281;48.770;11.440;2023-01-31T04:49:18;97993.97;;;11.23;44.47
78073;BME280;67281;48.770;11.440;2023-01-31T04:51:45;97984.50;;;11.20;44.62
78073;BME280;67281;48.770;11.440;2023-01-31T04:54:11;97989.19;;;11.29;44.63
78073;BME280;67281;48.770;11.440;2023-01-31T04:56:38;97989.28;;;11.28;44.58
78073;BME280;67281;48.770;11.440;2023-01-31T04:59:04;98001.19;;;11.33;44.40
78073;BME280;67281;48.770;11.440;2023-01-31T05:01:31;98007.47;;;11.16;44.75
78073;BME280;67281;48.770;11.440;2023-01-31T05:03:58;98010.94;;;11.17;44.61
78073;BME280;67281;48.770;11.440;2023-01-31T05:06:25;98009.53;;;11.26;44.61
78073;BME280;67281;48.770;11.440;2023-01-31T05:08:51;98012.69;;;11.16;44.40
78073;BME280;67281;48.770;11.440;2023-01-31T05:11:20;98011.59;;;11.06;45.19
78073;BME280;67281;48.770;11.440;2023-01-31T05:13:47;98021.50;;;11.15;45.11
78073;BME280;67281;48.770;11.440;2023-01-31T05:16:14;98019.75;;;11.02;45.28
78073;BME280;67281;48.770;11.440;2023-01-31T05:18:40;98014.41;;;11.03;45.00
78073;BME280;67281;48.770;11.440;2023-01-31T05:21:07;98006.63;;;11.16;44.88
78073;BME280;67281;48.770;11.440;2023-01-31T05:23:34;98009.31;;;11.14;44.48
78073;BME280;67281;48.770;11.440;2023-01-31T05:26:01;98019.09;;;11.27;44.03
78073;BME280;67281;48.770;11.440;2023-01-31T05:28:29;98020.03;;;11.11;44.74
78073;BME280;67281;48.770;11.440;2023-01-31T05:31:01;98018.53;;;11.22;44.32
78073;BME280;67281;48.770;11.440;2023-01-31T05:33:29;98010.63;;;10.93;44.79
78073;BME280;67281;48.770;11.440;2023-01-31T05:36:00;98004.66;;;11.19;44.42
78073;BME280;67281;48.770;11.440;2023-01-31T05:38:27;98005.50;;;11.20;44.42
78073;BME280;67281;48.770;11.440;2023-01-31T05:40:54;98007.09;;;11.08;44.75
78073;BME280;67281;48.770;11.440;2023-01-31T05:43:20;98014.00;;;10.95;44.59
78073;BME280;67281;48.770;11.440;2023-01-31T05:45:48;97993.25;;;11.06;45.06
78073;BME280;67281;48.770;11.440;2023-01-31T05:48:15;97993.69;;;10.99;44.85
78073;BME280;67281;48.770;11.440;2023-01-31T05:50:42;97992.91;;;10.82;45.26
78073;BME280;67281;48.770;11.440;2023-01-31T05:53:08;97987.69;;;10.82;45.65
78073;BME280;67281;48.770;11.440;2023-01-31T05:55:35;97982.56;;;10.95;45.24
78073;BME280;67281;48.770;11.440;2023-01-31T05:58:02;97985.81;;;10.84;45.73
78073;BME280;67281;48.770;11.440;2023-01-31T06:00:29;97993.97;;;10.94;44.82
78073;BME280;67281;48.770;11.440;2023-01-31T06:02:57;98000.16;;;10.93;45.36
78073;BME280;67281;48.770;11.440;2023-01-31T06:05:25;98006.72;;;11.00;45.14
78073;BME280;67281;48.770;11.440;2023-01-31T06:07:51;98009.66;;;10.80;45.22
78073;BME280;67281;48.770;11.440;2023-01-31T06:10:18;98001.16;;;10.91;44.80
78073;BME280;67281;48.770;11.440;2023-01-31T06:12:46;98002.22;;;11.16;44.68
78073;BME280;67281;48.770;11.440;2023-01-31T06:15:13;97999.59;;;11.02;44.58
78073;BME280;67281;48.770;11.440;2023-01-31T06:17:40;98011.88;;;11.02;44.85
78073;BME280;67281;48.770;11.440;2023-01-31T06:20:07;98008.50;;;11.14;44.47
78073;BME280;67281;48.770;11.440;2023-01-31T06:22:34;98029.78;;;11.09;45.12
78073;BME280;67281;48.770;11.440;2023-01-31T06:25:00;98031.81;;;11.04;44.45
78073;BME280;67281;48.770;11.440;2023-01-31T06:27:30;98025.69;;;10.90;45.05
78073;BME280;67281;48.770;11.440;2023-01-31T06:29:58;98025.72;;;11.04;44.46
78073;BME280;67281;48.770;11.440;2023-01-31T06:32:25;98034.19;;;11.09;44.44
78073;BME280;67281;48.770;11.440;2023-01-31T06:34:51;98035.38;;;11.03;44.62
78073;BME280;67281;48.770;11.440;2023-01-31T06:37:18;98042.50;;;11.01;45.08
78073;BME280;67281;48.770;11.440;2023-01-31T06:39:44;98040.81;;;11.14;44.55
78073;BME280;67281;48.770;11.440;2023-01-31T06:42:11;98033.91;;;11.13;44.16
78073;BME280;67281;48.770;11.440;2023-01-31T06:44:38;98045.97;;;11.16;44.62
78073;BME280;67281;48.770;11.440;2023-01-31T06:47:04;98045.97;;;11.16;44.56
78073;BME280;67281;48.770;11.440;2023-01-31T06:49:31;98049.81;;;11.10;44.22
78073;BME280;67281;48.770;11.440;2023-01-31T06:51:58;98036.69;;;10.96;44.90
78073;BME280;67281;48.770;11.440;2023-01-31T06:54:24;98045.50;;;11.09;44.40
78073;BME280;67281;48.770;11.440;2023-01-31T06:56:51;98043.44;;;11.14;44.43
78073;BME280;67281;48.770;11.440;2023-01-31T06:59:18;98042.97;;;11.08;44.95
78073;BME280;67281;48.770;11.440;2023-01-31T07:01:44;98047.00;;;11.13;44.53
78073;BME280;67281;48.770;11.440;2023-01-31T07:04:11;98047.25;;;10.95;44.70
78073;BME280;67281;48.770;11.440;2023-01-31T07:06:37;98051.34;;;10.84;44.95
78073;BME280;67281;48.770;11.440;2023-01-31T07:09:04;98058.34;;;10.84;45.18
78073;BME280;67281;48.770;11.440;2023-01-31T07:11:31;98046.19;;;10.83;45.41
78073;BME280;67281;48.770;11.440;2023-01-31T07:13:57;98050.34;;;10.71;45.46
78073;BME280;67281;48.770;11.440;2023-01-31T07:16:24;98057.19;;;11.04;44.39
78073;BME280;67281;48.770;11.440;2023-01-31T07:18:53;98056.19;;;11.06;44.79
78073;BME280;67281;48.770;11.440;2023-01-31T07:21:21;98062.53;;;10.72;45.09
78073;BME280;67281;48.770;11.440;2023-01-31T07:23:48;98063.88;;;10.79;45.30
78073;BME280;67281;48.770;11.440;2023-01-31T07:26:15;98062.13;;;10.94;45.02
78073;BME280;67281;48.770;11.440;2023-01-31T07:28:42;98065.47;;;10.82;45.47
78073;BME280;67281;48.770;11.440;2023-01-31T07:31:12;98054.13;;;10.81;44.91
78073;BME280;67281;48.770;11.440;2023-01-31T07:33:40;98058.34;;;10.84;45.25
78073;BME280;67281;48.770;11.440;2023-01-31T07:36:10;98058.31;;;10.70;45.46
78073;BME280;67281;48.770;11.440;2023-01-31T07:38:38;98054.09;;;10.67;45.09
78073;BME280;67281;48.770;11.440;2023-01-31T07:41:04;98042.81;;;10.81;45.15
78073;BME280;67281;48.770;11.440;2023-01-31T07:43:31;98052.22;;;10.99;44.82
78073;BME280;67281;48.770;11.440;2023-01-31T07:45:58;98058.50;;;10.97;44.80
78073;BME280;67281;48.770;11.440;2023-01-31T07:48:25;98057.97;;;11.06;44.81
78073;BME280;67281;48.770;11.440;2023-01-31T07:50:58;98066.19;;;11.00;44.92
78073;BME280;67281;48.770;11.440;2023-01-31T07:53:30;98059.44;;;10.96;44.44
78073;BME280;67281;48.770;11.440;2023-01-31T07:58:37;98062.66;;;10.85;45.18
78073;BME280;67281;48.770;11.440;2023-01-31T08:01:04;98064.97;;;10.75;45.16
78073;BME280;67281;48.770;11.440;2023-01-31T08:03:50;98066.00;;;10.73;45.35
78073;BME280;67281;48.770;11.440;2023-01-31T08:06:17;98058.53;;;10.81;45.19
78073;BME280;67281;48.770;11.440;2023-01-31T08:08:44;98054.91;;;10.83;45.13
78073;BME280;67281;48.770;11.440;2023-01-31T08:11:11;98062.00;;;10.81;44.72
78073;BME280;67281;48.770;11.440;2023-01-31T08:13:38;98058.53;;;10.81;45.12
78073;BME280;67281;48.770;11.440;2023-01-31T08:16:07;98064.88;;;10.77;44.97
78073;BME280;67281;48.770;11.440;2023-01-31T08:18:35;98063.59;;;10.84;45.34
78073;BME280;67281;48.770;11.440;2023-01-31T08:21:03;98063.91;;;10.94;44.46
78073;BME280;67281;48.770;11.440;2023-01-31T08:23:30;98071.56;;;10.82;45.38
78073;BME280;67281;48.770;11.440;2023-01-31T08:26:02;98066.84;;;11.03;44.30
78073;BME280;67281;48.770;11.440;2023-01-31T08:28:30;98063.25;;;10.90;44.49
78073;BME280;67281;48.770;11.440;2023-01-31T08:30:57;98073.66;;;10.92;44.58
78073;BME280;67281;48.770;11.440;2023-01-31T08:33:35;98081.59;;;10.90;44.61
78073;BME280;67281;48.770;11.440;2023-01-31T08:36:20;98077.34;;;11.03;44.34
78073;BME280;67281;48.770;11.440;2023-01-31T08:38:49;98074.91;;;11.00;44.42
78073;BME280;67281;48.770;11.440;2023-01-31T08:41:18;98088.53;;;10.91;44.59
78073;BME280;67281;48.770;11.440;2023-01-31T08:43:45;98072.56;;;10.80;44.95
78073;BME280;67281;48.770;11.440;2023-01-31T08:46:23;98067.34;;;10.80;44.89
78073;BME280;67281;48.770;11.440;2023-01-31T08:48:50;98065.34;;;10.99;44.23
78073;BME280;67281;48.770;11.440;2023-01-31T08:51:17;98075.56;;;11.04;44.36
78073;BME280;67281;48.770;11.440;2023-01-31T08:53:44;98076.03;;;11.10;44.54
78073;BME280;67281;48.770;11.440;2023-01-31T08:56:12;98076.81;;;10.82;45.34
78073;BME280;67281;48.770;11.440;2023-01-31T08:58:41;98073.06;;;10.86;44.67
78073;BME280;67281;48.770;11.440;2023-01-31T09:01:16;98091.34;;;10.88;44.55
78073;BME280;67281;48.770;11.440;2023-01-31T09:03:44;98088.47;;;10.77;45.47
78073;BME280;67281;48.770;11.440;2023-01-31T09:06:13;98095.81;;;10.86;44.66
78073;BME280;67281;48.770;11.440;2023-01-31T09:08:40;98091.09;;;10.77;44.86
78073;BME280;67281;48.770;11.440;2023-01-31T09:11:07;98104.13;;;10.78;44.80
78073;BME280;67281;48.770;11.440;2023-01-31T09:13:34;98107.91;;;10.89;44.70
78073;BME280;67281;48.770;11.440;2023-01-31T09:16:04;98097.28;;;10.76;45.22
78073;BME280;67281;48.770;11.440;2023-01-31T09:18:34;98084.34;;;10.73;45.25
78073;BME280;67281;48.770;11.440;2023-01-31T09:21:07;98080.19;;;10.84;44.92
78073;BME280;67281;48.770;11.440;2023-01-31T09:23:35;98091.06;;;10.93;44.81
78073;BME280;67281;48.770;11.440;2023-01-31T09:26:02;98087.44;;;10.95;44.70
78073;BME280;67281;48.770;11.440;2023-01-31T09:28:29;98088.44;;;10.93;44.71
78073;BME280;67281;48.770;11.440;2023-01-31T09:31:05;98089.34;;;11.07;44.33
78073;BME280;67281;48.770;11.440;2023-01-31T09:33:33;98085.69;;;11.10;44.49
78073;BME280;67281;48.770;11.440;2023-01-31T09:36:03;98085.97;;;11.05;44.10
78073;BME280;67281;48.770;11.440;2023-01-31T09:38:31;98087.47;;;11.09;44.44
78073;BME280;67281;48.770;11.440;2023-01-31T09:41:00;98092.19;;;10.89;45.13
78073;BME280;67281;48.770;11.440;2023-01-31T09:43:32;98095.34;;;11.24;44.57
78073;BME280;67281;48.770;11.440;2023-01-31T09:46:02;98087.84;;;11.17;44.40
78073;BME280;67281;48.770;11.440;2023-01-31T09:48:34;98089.44;;;11.06;44.71
78073;BME280;67281;48.770;11.440;2023-01-31T09:51:04;98093.56;;;11.10;44.91
78073;BME280;67281;48.770;11.440;2023-01-31T09:53:34;98105.25;;;11.04;44.77
78073;BME280;67281;48.770;11.440;2023-01-31T09:56:12;98091.97;;;11.07;44.69
78073;BME280;67281;48.770;11.440;2023-01-31T10:01:50;98091.03;;;11.23;44.17
78073;BME280;67281;48.770;11.440;2023-01-31T10:07:18;98075.47;;;11.19;44.21
78073;BME280;67281;48.770;11.440;2023-01-31T10:10:13;98073.50;;;11.09;44.46
78073;BME280;67281;48.770;11.440;2023-01-31T10:12:48;98067.03;;;11.14;44.47
78073;BME280;67281;48.770;11.440;2023-01-31T10:15:31;98070.78;;;11.10;44.27
78073;BME280;67281;48.770;11.440;2023-01-31T10:18:07;98057.13;;;11.05;44.87
78073;BME280;67281;48.770;11.440;2023-01-31T10:20:40;98056.75;;;11.11;44.34
78073;BME280;67281;48.770;11.440;2023-01-31T10:23:26;98067.06;;;11.29;44.18
78073;BME280;67281;48.770;11.440;2023-01-31T10:25:59;98060.31;;;11.10;44.72
78073;BME280;67281;48.770;11.440;2023-01-31T10:28:50;98063.13;;;11.07;44.46
78073;BME280;67281;48.770;11.440;2023-01-31T10:31:31;98050.19;;;11.04;44.28
78073;BME280;67281;48.770;11.440;2023-01-31T10:34:09;98053.66;;;11.19;44.77
78073;BME280;67281;48.770;11.440;2023-01-31T10:44:41;98033.72;;;11.31;44.31
78073;BME280;67281;48.770;11.440;2023-01-31T10:47:16;98031.56;;;11.37;44.38
78073;BME280;67281;48.770;11.440;2023-01-31T10:49:48;98018.16;;;11.28;44.53
78073;BME280;67281;48.770;11.440;2023-01-31T10:52:26;98004.66;;;11.34;44.59
78073;BME280;67281;48.770;11.440;2023-01-31T10:57:30;98000.63;;;11.42;43.71
78073;BME280;67281;48.770;11.440;2023-01-31T10:59:57;98005.03;;;11.28;44.53
78073;BME280;67281;48.770;11.440;2023-01-31T11:02:25;97999.31;;;11.21;44.16
78073;BME280;67281;48.770;11.440;2023-01-31T11:04:55;97995.19;;;11.17;44.52
78073;BME280;67281;48.770;11.440;2023-01-31T11:07:22;97987.69;;;11.25;44.71
78073;BME280;67281;48.770;11.440;2023-01-31T11:09:52;97983.59;;;11.35;44.33
78073;BME280;67281;48.770;11.440;2023-01-31T11:12:21;97985.63;;;11.44;44.12
78073;BME280;67281;48.770;11.440;2023-01-31T11:15:03;97972.44;;;11.46;43.75
78073;BME280;67281;48.770;11.440;2023-01-31T11:17:35;97971.50;;;11.47;44.08
78073;BME280;67281;48.770;11.440;2023-01-31T11:20:03;97973.66;;;11.40;44.20
78073;BME280;67281;48.770;11.440;2023-01-31T11:22:34;97970.66;;;11.32;44.32
78073;BME280;67281;48.770;11.440;2023-01-31T11:25:03;97968.59;;;11.37;43.69
78073;BME280;67281;48.770;11.440;2023-01-31T11:27:39;97964.38;;;11.49;43.61
78073;BME280;67281;48.770;11.440;2023-01-31T11:32:49;97957.81;;;11.56;44.05
78073;BME280;67281;48.770;11.440;2023-01-31T11:40:21;97972.31;;;11.62;44.14
78073;BME280;67281;48.770;11.440;2023-01-31T11:42:57;97962.88;;;11.45;44.16
78073;BME280;67281;48.770;11.440;2023-01-31T11:45:28;97953.28;;;11.58;43.66
78073;BME280;67281;48.770;11.440;2023-01-31T11:47:58;97927.81;;;11.46;44.16
78073;BME280;67281;48.770;11.440;2023-01-31T11:50:35;97925.75;;;11.51;44.25
78073;BME280;67281;48.770;11.440;2023-01-31T11:53:16;97932.03;;;11.48;44.11
78073;BME280;67281;48.770;11.440;2023-01-31T11:55:44;97919.78;;;11.35;44.27
78073;BME280;67281;48.770;11.440;2023-01-31T12:00:58;97912.84;;;11.34;44.58
78073;BME280;67281;48.770;11.440;2023-01-31T12:03:27;97930.19;;;11.22;44.49
78073;BME280;67281;48.770;11.440;2023-01-31T12:06:06;97917.16;;;11.35;44.33
78073;BME280;67281;48.770;11.440;2023-01-31T12:13:51;97925.81;;;11.78;43.28
78073;BME280;67281;48.770;11.440;2023-01-31T12:16:23;97912.81;;;11.89;43.34
78073;BME280;67281;48.770;11.440;2023-01-31T12:27:40;97915.34;;;11.91;43.25
78073;BME280;67281;48.770;11.440;2023-01-31T12:30:24;97911.47;;;11.69;43.53
78073;BME280;67281;48.770;11.440;2023-01-31T12:33:20;97893.00;;;11.71;43.42
78073;BME280;67281;48.770;11.440;2023-01-31T12:36:00;97885.66;;;11.76;43.73
78073;BME280;67281;48.770;11.440;2023-01-31T12:41:40;97873.31;;;11.78;43.77
78073;BME280;67281;48.770;11.440;2023-01-31T12:44:44;97864.09;;;11.85;43.29
78073;BME280;67281;48.770;11.440;2023-01-31T12:50:20;97835.53;;;11.93;43.54
78073;BME280;67281;48.770;11.440;2023-01-31T12:56:04;97849.81;;;11.62;44.11
78073;BME280;67281;48.770;11.440;2023-01-31T12:58:56;97842.75;;;11.77;43.91
78073;BME280;67281;48.770;11.440;2023-01-31T13:01:52;97841.63;;;11.67;43.72
78073;BME280;67281;48.770;11.440;2023-01-31T13:07:29;97816.88;;;11.71;43.94
78073;BME280;67281;48.770;11.440;2023-01-31T13:10:02;97817.56;;;11.60;44.10
78073;BME280;67281;48.770;11.440;2023-01-31T13:12:32;97812.00;;;11.65;43.98
78073;BME280;67281;48.770;11.440;2023-01-31T13:15:09;97805.97;;;11.50;44.18
78073;BME280;67281;48.770;11.440;2023-01-31T13:17:41;97810.28;;;11.51;44.41
78073;BME280;67281;48.770;11.440;2023-01-31T13:20:24;97806.66;;;11.66;43.54
78073;BME280;67281;48.770;11.440;2023-01-31T13:22:58;97801.28;;;11.55;43.71
78073;BME280;67281;48.770;11.440;2023-01-31T13:28:22;97800.78;;;11.63;44.34
78073;BME280;67281;48.770;11.440;2023-01-31T13:31:01;97785.38;;;11.71;44.14
78073;BME280;67281;48.770;11.440;2023-01-31T13:36:07;97791.22;;;11.35;44.76
78073;BME280;67281;48.770;11.440;2023-01-31T13:38:40;97791.31;;;11.33;44.32
78073;BME280;67281;48.770;11.440;2023-01-31T13:41:12;97801.88;;;11.46;44.37
78073;BME280;67281;48.770;11.440;2023-01-31T13:43:43;97806.56;;;11.41;44.31
78073;BME280;67281;48.770;11.440;2023-01-31T13:46:11;97798.50;;;11.44;44.82
78073;BME280;67281;48.770;11.440;2023-01-31T13:48:44;97789.53;;;11.34;44.61
78073;BME280;67281;48.770;11.440;2023-01-31T13:53:57;97794.63;;;11.49;44.43
78073;BME280;67281;48.770;11.440;2023-01-31T13:56:31;97789.25;;;11.38;44.45
78073;BME280;67281;48.770;11.440;2023-01-31T13:58:59;97788.00;;;11.44;44.25
78073;BME280;67281;48.770;11.440;2023-01-31T14:01:29;97801.72;;;11.35;44.30
78073;BME280;67281;48.770;11.440;2023-01-31T14:09:25;97813.31;;;11.45;45.13
78073;BME280;67281;48.770;11.440;2023-01-31T14:11:57;97814.75;;;11.63;44.48
78073;BME280;67281;48.770;11.440;2023-01-31T14:14:37;97802.56;;;11.62;44.03
78073;BME280;67281;48.770;11.440;2023-01-31T14:17:12;97793.00;;;11.61;43.81
78073;BME280;67281;48.770;11.440;2023-01-31T14:30:44;97790.78;;;11.55;44.10
78073;BME280;67281;48.770;11.440;2023-01-31T14:33:22;97779.38;;;11.42;44.19
78073;BME280;67281;48.770;11.440;2023-01-31T14:36:16;97772.22;;;11.58;44.66
78073;BME280;67281;48.770;11.440;2023-01-31T14:50:43;97776.41;;;11.61;44.22
78073;BME280;67281;48.770;11.440;2023-01-31T14:53:51;97761.72;;;11.58;44.44
78073;BME280;67281;48.770;11.440;2023-01-31T14:59:35;97781.06;;;11.70;44.15
78073;BME280;67281;48.770;11.440;2023-01-31T15:03:20;97765.31;;;11.70;44.23
78073;BME280;67281;48.770;11.440;2023-01-31T15:11:02;97749.75;;;11.67;44.21
78073;BME280;67281;48.770;11.440;2023-01-31T15:16:39;97739.66;;;11.61;44.19
78073;BME280;67281;48.770;11.440;2023-01-31T15:19:07;97743.03;;;11.63;43.95
78073;BME280;67281;48.770;11.440;2023-01-31T15:21:53;97733.38;;;11.63;44.56
78073;BME280;67281;48.770;11.440;2023-01-31T15:24:34;97736.75;;;11.65;44.67
78073;BME280;67281;48.770;11.440;2023-01-31T15:27:04;97739.06;;;11.70;44.31
78073;BME280;67281;48.770;11.440;2023-01-31T15:29:44;97751.53;;;11.66;44.31
78073;BME280;67281;48.770;11.440;2023-01-31T15:32:22;97755.50;;;11.59;44.64
78073;BME280;67281;48.770;11.440;2023-01-31T15:34:58;97765.22;;;11.71;44.09
78073;BME280;67281;48.770;11.440;2023-01-31T15:37:32;97749.66;;;11.68;44.21
78073;BME280;67281;48.770;11.440;2023-01-31T15:40:16;97747.97;;;11.67;44.06
78073;BME280;67281;48.770;11.440;2023-01-31T15:42:44;97723.66;;;11.78;44.15